Time;durP1;ratioP1;P1;durP2;ratioP2;P2;SDS_P1;SDS_P2;PMS_P1;PMS_P2;Temp;Humidity;BMP_temperature;BMP_pressure;BME280_temperature;BME280_humidity;BME280_pressure;Samples;Min_cycle;Max_cycle;Signal;HPM_P1;HPM_P2
2022/10/01 00:01:47;;;;;;;7.63;6.90;;;9.00;99.90;;;;;;4957002;28;20210;-92
2022/10/01 00:04:13;;;;;;;8.53;7.63;;;9.00;99.90;;;;;;4959454;28;20307;-91
2022/10/01 00:06:38;;;;;;;7.33;6.63;;;9.00;99.90;;;;;;4960181;28;20332;-93
2022/10/01 00:09:04;;;;;;;8.77;7.87;;;9.00;99.90;;;;;;4956318;28;20190;-92
2022/10/01 00:11:30;;;;;;;7.57;6.87;;;9.00;99.90;;;;;;4956438;28;20194;-92
2022/10/01 00:13:56;;;;;;;8.20;7.40;;;9.00;99.90;;;;;;4954896;28;20296;-91
2022/10/01 00:16:27;;;;;;;8.60;7.27;;;9.00;99.90;;;;;;4960268;28;20445;-91
2022/10/01 00:18:53;;;;;;;7.90;7.20;;;9.00;99.90;;;;;;4954666;28;20500;-90
2022/10/01 00:21:24;;;;;;;8.50;7.80;;;9.10;99.90;;;;;;4957209;28;20436;-92
2022/10/01 00:24:03;;;;;;;8.80;7.90;;;9.00;99.90;;;;;;4952693;28;22040;-93
2022/10/01 00:26:31;;;;;;;8.00;7.17;;;9.00;99.90;;;;;;4964107;28;20452;-91
2022/10/01 00:29:06;;;;;;;7.33;6.70;;;9.10;99.90;;;;;;4958469;28;21139;-92
2022/10/01 00:31:32;;;;;;;7.10;6.40;;;9.10;99.90;;;;;;4955261;28;20447;-91
2022/10/01 00:34:02;;;;;;;9.30;6.70;;;9.10;99.90;;;;;;4957449;28;20673;-91
2022/10/01 00:36:28;;;;;;;7.93;7.23;;;9.10;99.90;;;;;;4960306;28;20189;-91
2022/10/01 00:38:59;;;;;;;7.97;7.20;;;9.10;99.90;;;;;;4957463;28;20825;-92
2022/10/01 00:41:25;;;;;;;8.23;7.40;;;9.00;99.90;;;;;;4956551;28;20440;-92
2022/10/01 00:43:57;;;;;;;7.23;6.53;;;8.90;99.90;;;;;;4961684;28;20489;-92
2022/10/01 00:46:39;;;;;;;7.27;6.50;;;8.90;99.90;;;;;;4955739;28;20611;-90
2022/10/01 00:49:10;;;;;;;7.27;6.57;;;8.80;99.90;;;;;;4962256;28;20484;-91
2022/10/01 00:51:43;;;;;;;7.57;6.97;;;8.80;99.90;;;;;;4958854;28;20455;-92
2022/10/01 00:54:20;;;;;;;7.13;6.53;;;8.90;99.90;;;;;;4963543;28;20514;-91
2022/10/01 00:56:46;;;;;;;7.43;6.70;;;8.90;99.90;;;;;;4960798;28;20510;-91
2022/10/01 00:59:14;;;;;;;8.00;7.30;;;8.90;99.90;;;;;;4978581;28;20838;-91
2022/10/01 01:01:39;;;;;;;7.50;6.80;;;8.90;99.90;;;;;;4984369;28;21330;-92
2022/10/01 01:04:15;;;;;;;7.77;7.07;;;8.90;99.90;;;;;;4982954;28;20550;-92
2022/10/01 01:06:43;;;;;;;6.90;6.30;;;8.90;99.90;;;;;;4976835;28;20193;-91
2022/10/01 01:09:08;;;;;;;8.70;6.77;;;8.90;99.90;;;;;;4957466;28;21648;-90
2022/10/01 01:11:49;;;;;;;7.17;6.40;;;8.80;99.90;;;;;;4978065;28;20457;-91
2022/10/01 01:14:28;;;;;;;7.33;6.73;;;8.80;99.90;;;;;;4959228;28;20197;-91
2022/10/01 01:17:07;;;;;;;7.53;6.60;;;8.80;99.90;;;;;;4972099;28;20472;-91
2022/10/01 01:19:51;;;;;;;7.07;6.37;;;8.80;99.90;;;;;;4963608;28;20437;-92
2022/10/01 01:22:24;;;;;;;6.87;6.27;;;8.90;99.90;;;;;;4967037;28;20449;-92
2022/10/01 01:24:55;;;;;;;7.50;6.80;;;8.90;99.90;;;;;;4959643;28;20523;-90
2022/10/01 01:27:33;;;;;;;7.30;6.60;;;8.90;99.90;;;;;;4962385;28;20503;-91
2022/10/01 01:30:05;;;;;;;7.23;6.63;;;8.80;99.90;;;;;;4957892;28;20448;-94
2022/10/01 01:33:01;;;;;;;7.90;7.07;;;8.80;99.90;;;;;;4967143;28;20452;-92
2022/10/01 01:35:35;;;;;;;7.70;6.37;;;8.70;99.90;;;;;;4977328;28;20822;-92
2022/10/01 01:38:09;;;;;;;6.30;5.80;;;8.70;99.90;;;;;;4961889;28;20472;-92
2022/10/01 01:40:40;;;;;;;6.30;5.80;;;8.70;99.90;;;;;;4955336;28;20984;-92
2022/10/01 01:43:11;;;;;;;6.77;6.17;;;8.70;99.90;;;;;;4969036;28;20479;-92
2022/10/01 01:45:41;;;;;;;8.27;6.43;;;8.70;99.90;;;;;;4953235;28;20460;-91
2022/10/01 01:48:08;;;;;;;6.30;5.47;;;8.70;99.90;;;;;;4955758;28;20440;-90
2022/10/01 01:50:42;;;;;;;6.67;6.07;;;8.80;99.90;;;;;;4956231;28;20504;-91
2022/10/01 01:53:07;;;;;;;7.20;6.50;;;8.90;99.90;;;;;;4958816;28;20450;-91
2022/10/01 01:55:38;;;;;;;6.40;5.80;;;8.90;99.90;;;;;;4956840;28;20525;-91
2022/10/01 01:58:09;;;;;;;6.97;5.90;;;8.90;99.90;;;;;;4964272;28;20217;-91
2022/10/01 02:00:52;;;;;;;5.70;5.27;;;8.90;99.90;;;;;;4959940;28;20590;-92
2022/10/01 02:03:20;;;;;;;6.90;5.77;;;8.90;99.90;;;;;;4957859;28;20480;-91
2022/10/01 02:06:16;;;;;;;7.03;5.93;;;9.00;99.90;;;;;;4954434;28;20464;-91
2022/10/01 02:08:54;;;;;;;6.10;5.60;;;8.90;99.90;;;;;;4955603;28;20832;-91
2022/10/01 02:11:58;;;;;;;5.70;5.20;;;8.80;99.90;;;;;;4951546;28;20448;-90
2022/10/01 02:14:43;;;;;;;5.47;4.97;;;8.80;99.90;;;;;;4956987;28;20445;-91
2022/10/01 02:17:40;;;;;;;5.07;4.67;;;8.80;99.90;;;;;;4970417;28;20984;-90
2022/10/01 02:20:35;;;;;;;6.03;5.53;;;8.80;99.90;;;;;;4922760;28;20448;-91
2022/10/01 02:23:12;;;;;;;6.33;5.73;;;8.70;99.90;;;;;;4950620;28;20476;-90
2022/10/01 02:25:54;;;;;;;5.80;5.30;;;8.80;99.90;;;;;;4956436;28;20457;-90
2022/10/01 02:28:22;;;;;;;6.97;6.27;;;8.80;99.90;;;;;;4964123;28;20514;-91
2022/10/01 02:30:50;;;;;;;7.47;5.93;;;8.90;99.90;;;;;;4956554;28;20448;-91
2022/10/01 02:33:19;;;;;;;5.87;5.27;;;8.90;99.90;;;;;;4964620;28;20445;-90
2022/10/01 02:35:47;;;;;;;6.97;6.37;;;8.90;99.90;;;;;;4956548;28;20456;-90
2022/10/01 02:38:14;;;;;;;6.43;5.93;;;8.80;99.90;;;;;;4958396;28;20441;-91
2022/10/01 02:40:43;;;;;;;6.30;5.70;;;8.80;99.90;;;;;;4955066;28;20436;-91
2022/10/01 02:43:19;;;;;;;7.30;5.97;;;8.70;99.90;;;;;;4957362;28;20457;-91
2022/10/01 02:46:03;;;;;;;6.07;5.47;;;8.70;99.90;;;;;;4974801;28;20455;-90
2022/10/01 02:48:29;;;;;;;6.13;5.63;;;8.60;99.90;;;;;;4953717;28;20448;-91
2022/10/01 02:51:39;;;;;;;5.60;5.13;;;8.60;99.90;;;;;;4954244;28;20447;-90
2022/10/01 02:54:42;;;;;;;6.03;5.43;;;8.70;99.90;;;;;;4946364;28;20562;-89
2022/10/01 02:57:23;;;;;;;6.07;5.00;;;8.70;99.90;;;;;;4946360;28;20495;-90
2022/10/01 03:00:01;;;;;;;6.30;5.70;;;8.70;99.90;;;;;;4957690;28;20436;-90
2022/10/01 03:02:30;;;;;;;5.90;5.30;;;8.70;99.90;;;;;;4952463;28;20535;-91
2022/10/01 03:04:56;;;;;;;6.97;4.90;;;8.80;99.90;;;;;;4954018;28;20472;-91
2022/10/01 03:07:26;;;;;;;4.60;4.30;;;8.80;99.90;;;;;;4956816;28;20447;-91
2022/10/01 03:09:52;;;;;;;6.00;5.40;;;8.80;99.90;;;;;;4967556;28;20444;-90
2022/10/01 03:12:18;;;;;;;4.70;4.33;;;8.90;99.90;;;;;;4955435;28;20883;-90
2022/10/01 03:14:44;;;;;;;5.47;4.97;;;8.90;99.90;;;;;;4953675;28;20276;-91
2022/10/01 03:17:11;;;;;;;5.27;4.87;;;8.90;99.90;;;;;;4956080;28;20633;-91
2022/10/01 03:19:37;;;;;;;4.77;4.37;;;8.90;99.90;;;;;;4973767;28;20437;-91
2022/10/01 03:22:03;;;;;;;5.30;4.90;;;8.90;99.90;;;;;;4961845;28;20502;-90
2022/10/01 03:24:28;;;;;;;5.87;5.37;;;9.00;99.90;;;;;;4956068;28;20250;-90
2022/10/01 03:26:59;;;;;;;5.40;4.90;;;9.00;99.90;;;;;;4960488;28;20272;-92
2022/10/01 03:29:25;;;;;;;5.53;5.07;;;8.90;99.90;;;;;;4959875;28;20204;-92
2022/10/01 03:31:53;;;;;;;5.23;4.83;;;8.90;99.90;;;;;;4964515;28;20474;-91
2022/10/01 03:34:33;;;;;;;5.30;4.80;;;8.90;99.90;;;;;;4959989;28;20544;-92
2022/10/01 03:37:02;;;;;;;5.00;4.60;;;8.90;99.90;;;;;;4959917;28;20289;-91
2022/10/01 03:39:31;;;;;;;5.40;4.90;;;8.90;99.90;;;;;;4957534;28;20444;-93
2022/10/01 03:42:12;;;;;;;4.87;4.47;;;8.80;99.90;;;;;;4958067;28;20445;-92
2022/10/01 03:44:37;;;;;;;5.30;4.90;;;8.80;99.90;;;;;;4960492;28;20476;-91
2022/10/01 03:47:03;;;;;;;4.40;4.10;;;8.80;99.90;;;;;;4961280;28;20182;-93
2022/10/01 03:49:29;;;;;;;4.30;4.00;;;8.90;99.90;;;;;;4960839;28;20204;-91
2022/10/01 03:51:54;;;;;;;4.87;4.40;;;8.80;99.90;;;;;;4955487;28;20192;-91
2022/10/01 03:54:20;;;;;;;4.80;4.40;;;8.80;99.90;;;;;;4959355;28;20224;-91
2022/10/01 03:56:47;;;;;;;4.87;4.27;;;8.90;99.90;;;;;;4958392;28;20263;-92
2022/10/01 03:59:13;;;;;;;4.43;4.03;;;8.90;99.90;;;;;;4956923;28;20191;-93
2022/10/01 04:01:38;;;;;;;4.87;4.47;;;8.90;99.90;;;;;;4959716;28;20981;-92
2022/10/01 04:04:05;;;;;;;5.00;4.60;;;8.80;99.90;;;;;;4965117;28;20275;-91
2022/10/01 04:06:31;;;;;;;4.23;3.83;;;8.90;99.90;;;;;;4958092;28;20205;-91
2022/10/01 04:08:56;;;;;;;4.63;4.23;;;8.80;99.90;;;;;;4959012;28;20476;-91
2022/10/01 04:11:23;;;;;;;5.03;4.53;;;8.70;99.90;;;;;;4948674;28;20185;-91
2022/10/01 04:13:49;;;;;;;4.23;3.93;;;8.70;99.90;;;;;;4953114;28;20308;-91
2022/10/01 04:16:14;;;;;;;4.33;4.03;;;8.70;99.90;;;;;;4955164;28;20441;-92
2022/10/01 04:18:40;;;;;;;4.87;4.47;;;8.70;99.90;;;;;;4967474;28;20191;-91
2022/10/01 04:21:06;;;;;;;5.07;4.57;;;8.70;99.90;;;;;;4963257;28;20190;-91
2022/10/01 04:23:34;;;;;;;3.90;3.50;;;8.80;99.90;;;;;;4955849;28;20489;-91
2022/10/01 04:26:07;;;;;;;4.23;3.93;;;8.80;99.90;;;;;;4957449;28;20540;-92
2022/10/01 04:28:40;;;;;;;4.47;4.17;;;8.80;99.90;;;;;;4960468;28;20452;-90
2022/10/01 04:31:23;;;;;;;4.50;4.10;;;8.70;99.90;;;;;;4974751;28;20456;-92
2022/10/01 04:33:50;;;;;;;3.77;3.47;;;8.70;99.90;;;;;;4977505;28;20197;-92
2022/10/01 04:36:16;;;;;;;4.40;4.00;;;8.70;99.90;;;;;;4978446;28;20593;-92
2022/10/01 04:38:41;;;;;;;4.43;3.90;;;8.70;99.90;;;;;;4958126;28;20543;-90
2022/10/01 04:41:08;;;;;;;3.77;3.47;;;8.60;99.90;;;;;;4967992;28;20526;-92
2022/10/01 04:43:33;;;;;;;3.90;3.60;;;8.60;99.90;;;;;;4963202;28;20217;-92
2022/10/01 04:45:59;;;;;;;5.90;5.30;;;8.60;99.90;;;;;;4958649;28;20484;-91
2022/10/01 04:48:24;;;;;;;4.13;3.73;;;8.70;99.90;;;;;;4970667;28;20178;-90
2022/10/01 04:50:50;;;;;;;3.87;3.57;;;8.70;99.90;;;;;;4967225;28;20534;-91
2022/10/01 04:53:16;;;;;;;4.70;3.20;;;8.70;99.90;;;;;;4969347;28;20181;-90
2022/10/01 04:55:42;;;;;;;4.03;3.63;;;8.70;99.90;;;;;;4962335;28;20185;-91
2022/10/01 04:58:08;;;;;;;3.87;3.57;;;8.70;99.90;;;;;;4966536;28;20179;-91
2022/10/01 05:00:33;;;;;;;3.40;3.10;;;8.70;99.90;;;;;;4972707;28;20452;-90
2022/10/01 05:03:01;;;;;;;3.30;3.10;;;8.80;99.90;;;;;;4957017;28;20214;-92
2022/10/01 05:05:39;;;;;;;3.87;3.53;;;8.80;99.90;;;;;;4959236;28;20210;-91
2022/10/01 05:08:05;;;;;;;4.03;3.50;;;8.90;99.90;;;;;;4957446;28;21286;-93
2022/10/01 05:10:31;;;;;;;2.93;2.73;;;8.80;99.90;;;;;;4979880;28;20420;-91
2022/10/01 05:12:59;;;;;;;2.73;2.50;;;8.90;99.90;;;;;;5002864;28;20445;-93
2022/10/01 05:15:24;;;;;;;3.10;2.90;;;8.90;99.90;;;;;;4990345;28;20189;-94
2022/10/01 05:17:50;;;;;;;3.10;2.90;;;9.00;99.90;;;;;;4990884;28;20453;-93
2022/10/01 05:20:21;;;;;;;3.53;3.23;;;8.90;99.90;;;;;;4966117;28;20551;-91
2022/10/01 05:22:48;;;;;;;3.43;2.67;;;9.00;99.90;;;;;;4963527;28;20280;-93
2022/10/01 05:25:14;;;;;;;3.10;2.80;;;9.10;99.90;;;;;;4961379;28;20450;-90
2022/10/01 05:27:40;;;;;;;2.63;2.17;;;9.20;99.90;;;;;;4955163;28;21199;-91
2022/10/01 05:30:08;;;;;;;2.57;2.47;;;9.30;99.90;;;;;;4960347;28;20496;-93
2022/10/01 05:32:36;;;;;;;2.37;2.00;;;9.30;99.90;;;;;;4962189;28;20445;-91
2022/10/01 05:35:03;;;;;;;2.10;1.90;;;9.40;99.90;;;;;;4964039;28;20441;-91
2022/10/01 05:37:29;;;;;;;3.83;2.40;;;9.50;99.90;;;;;;4956609;28;20444;-93
2022/10/01 05:39:54;;;;;;;2.27;2.13;;;9.50;99.90;;;;;;4960789;28;21060;-93
2022/10/01 05:42:20;;;;;;;2.27;2.07;;;9.50;99.90;;;;;;4959593;28;20582;-92
2022/10/01 05:44:46;;;;;;;2.40;2.20;;;9.60;99.90;;;;;;4962382;28;20254;-93
2022/10/01 05:47:19;;;;;;;1.83;1.73;;;9.60;99.90;;;;;;4962853;28;20178;-92
2022/10/01 05:49:45;;;;;;;2.10;1.90;;;9.60;99.90;;;;;;4957444;28;21000;-93
2022/10/01 05:52:12;;;;;;;1.93;1.80;;;9.70;99.90;;;;;;4961094;28;20565;-93
2022/10/01 05:54:38;;;;;;;1.83;1.73;;;9.70;99.90;;;;;;4964622;28;20186;-87
2022/10/01 05:57:04;;;;;;;2.10;2.00;;;9.80;99.90;;;;;;4956602;28;21108;-88
2022/10/01 05:59:33;;;;;;;1.90;1.80;;;9.80;99.90;;;;;;4954070;28;20979;-88
2022/10/01 06:01:58;;;;;;;2.00;1.90;;;9.80;99.90;;;;;;4952971;28;20452;-87
2022/10/01 06:04:24;;;;;;;5.00;1.83;;;9.80;99.90;;;;;;4957748;28;20488;-87
2022/10/01 06:06:49;;;;;;;1.80;1.70;;;9.90;99.90;;;;;;4951934;28;20786;-87
2022/10/01 06:09:15;;;;;;;1.93;1.83;;;9.90;99.90;;;;;;4953759;28;20189;-88
2022/10/01 06:14:45;;;;;;;2.17;1.97;;;10.00;99.90;;;;;;4956912;28;20201;-89
2022/10/01 06:17:11;;;;;;;3.70;1.90;;;10.00;99.90;;;;;;4969173;28;20476;-88
2022/10/01 06:19:39;;;;;;;1.50;1.40;;;10.00;99.90;;;;;;4957626;28;20449;-88
2022/10/01 06:22:28;;;;;;;2.57;1.70;;;10.00;99.90;;;;;;4959068;28;20185;-89
2022/10/01 06:24:54;;;;;;;2.10;1.90;;;10.10;99.90;;;;;;4956038;28;21843;-88
2022/10/01 06:27:19;;;;;;;2.30;1.93;;;10.10;99.90;;;;;;4958695;28;20540;-89
2022/10/01 06:29:45;;;;;;;1.93;1.83;;;10.00;99.90;;;;;;4955349;28;20465;-90
2022/10/01 06:32:16;;;;;;;1.50;1.40;;;10.00;99.90;;;;;;4956400;28;20182;-90
2022/10/01 06:34:42;;;;;;;1.90;1.60;;;10.00;99.90;;;;;;4958703;28;20880;-90
2022/10/01 06:37:07;;;;;;;2.30;2.10;;;9.90;99.90;;;;;;4956266;28;20619;-90
2022/10/01 06:39:33;;;;;;;1.80;1.70;;;9.90;99.90;;;;;;4953902;28;20190;-90
2022/10/01 06:41:58;;;;;;;1.70;1.60;;;9.90;99.90;;;;;;4950783;28;20280;-92
2022/10/01 06:44:24;;;;;;;2.50;1.70;;;9.90;99.90;;;;;;4953232;28;21823;-91
2022/10/01 06:46:49;;;;;;;3.20;2.00;;;9.90;99.90;;;;;;4954932;28;21232;-91
2022/10/01 06:49:19;;;;;;;1.80;1.70;;;9.90;99.90;;;;;;4956870;28;20811;-90
2022/10/01 06:54:29;;;;;;;2.40;2.20;;;10.00;99.90;;;;;;4965915;28;20456;-88
2022/10/01 06:56:57;;;;;;;2.40;2.20;;;10.00;99.90;;;;;;4952038;28;20446;-88
2022/10/01 06:59:23;;;;;;;2.00;1.90;;;10.00;99.90;;;;;;4954212;28;20983;-89
2022/10/01 07:01:52;;;;;;;2.77;2.17;;;10.00;99.90;;;;;;4951633;28;20472;-89
2022/10/01 07:04:19;;;;;;;2.60;2.40;;;10.00;99.90;;;;;;4960431;28;20245;-89
2022/10/01 07:06:47;;;;;;;2.63;2.43;;;10.00;99.90;;;;;;4959630;28;20457;-91
2022/10/01 07:09:13;;;;;;;2.73;2.53;;;10.00;99.90;;;;;;4964045;28;20445;-89
2022/10/01 07:11:40;;;;;;;2.60;2.40;;;10.00;99.90;;;;;;4956691;28;20469;-88
2022/10/01 07:14:06;;;;;;;5.10;2.50;;;10.00;99.90;;;;;;4959860;28;20216;-88
2022/10/01 07:16:38;;;;;;;2.90;2.70;;;10.00;99.90;;;;;;4957799;28;20830;-89
2022/10/01 07:19:06;;;;;;;2.70;2.50;;;10.10;99.90;;;;;;4961844;28;20812;-86
2022/10/01 07:21:36;;;;;;;3.67;3.30;;;10.10;99.90;;;;;;4962386;28;20445;-89
2022/10/01 07:24:02;;;;;;;6.20;2.50;;;10.10;99.90;;;;;;4951590;28;21927;-88
2022/10/01 07:26:28;;;;;;;3.07;2.40;;;10.20;99.90;;;;;;4957570;28;20208;-85
2022/10/01 07:28:54;;;;;;;5.00;3.10;;;10.20;99.90;;;;;;4951511;28;20219;-89
2022/10/01 07:31:22;;;;;;;3.50;3.20;;;10.20;99.90;;;;;;4954416;28;20556;-89
2022/10/01 07:33:56;;;;;;;3.77;3.37;;;10.20;99.90;;;;;;4961967;28;20559;-93
2022/10/01 07:36:22;;;;;;;2.90;2.70;;;10.20;99.90;;;;;;4958452;28;20452;-89
2022/10/01 07:38:50;;;;;;;2.50;2.30;;;10.20;99.90;;;;;;4960782;28;20437;-94
2022/10/01 07:41:16;;;;;;;3.20;2.43;;;10.20;99.90;;;;;;4960552;28;20186;-91
2022/10/01 07:43:42;;;;;;;5.57;3.90;;;10.30;99.90;;;;;;4964301;28;20474;-92
2022/10/01 07:46:09;;;;;;;3.30;3.00;;;10.20;99.90;;;;;;4972680;28;20857;-87
2022/10/01 07:48:34;;;;;;;2.50;2.00;;;10.20;99.90;;;;;;4954921;28;20452;-82
2022/10/01 07:51:01;;;;;;;2.30;2.20;;;10.20;99.90;;;;;;4956844;28;20430;-91
2022/10/01 07:53:31;;;;;;;4.30;2.90;;;10.20;99.90;;;;;;4973360;28;20194;-91
2022/10/01 07:56:12;;;;;;;2.47;2.27;;;10.30;99.90;;;;;;4959504;28;20841;-94
2022/10/01 07:59:01;;;;;;;2.03;1.83;;;10.20;99.90;;;;;;4962055;28;20447;-94
2022/10/01 08:01:28;;;;;;;2.60;2.30;;;10.20;99.90;;;;;;4952393;28;20644;-91
2022/10/01 08:03:53;;;;;;;2.23;2.13;;;10.30;99.90;;;;;;4955490;28;20477;-92
2022/10/01 08:06:23;;;;;;;2.80;2.20;;;10.30;99.90;;;;;;4953692;28;20452;-89
2022/10/01 08:08:52;;;;;;;2.60;2.20;;;10.30;99.90;;;;;;4948075;28;21762;-89
2022/10/01 08:11:17;;;;;;;2.10;2.00;;;10.30;99.90;;;;;;4959581;28;20468;-91
2022/10/01 08:13:46;;;;;;;2.20;2.00;;;10.30;99.90;;;;;;4957930;28;20448;-93
2022/10/01 08:16:12;;;;;;;3.30;2.30;;;10.30;99.90;;;;;;4969451;28;20316;-96
2022/10/01 08:18:45;;;;;;;3.20;1.70;;;10.30;99.90;;;;;;4978782;28;20481;-96
2022/10/01 08:21:11;;;;;;;1.83;1.73;;;10.40;99.90;;;;;;4990863;28;20258;-96
2022/10/01 08:23:37;;;;;;;2.37;1.47;;;10.40;99.90;;;;;;4974303;28;20559;-95
2022/10/01 08:26:06;;;;;;;1.60;1.50;;;10.50;99.90;;;;;;4968651;28;20449;-94
2022/10/01 08:28:35;;;;;;;1.60;1.50;;;10.50;99.90;;;;;;4979775;28;20190;-94
2022/10/01 08:31:08;;;;;;;1.80;1.20;;;10.60;99.90;;;;;;4973943;28;20480;-94
2022/10/01 08:33:35;;;;;;;1.40;1.40;;;10.70;99.90;;;;;;4980386;28;20537;-94
2022/10/01 08:36:08;;;;;;;2.10;1.43;;;10.70;99.90;;;;;;4977115;28;21238;-92
2022/10/01 08:38:34;;;;;;;1.57;1.47;;;10.70;99.90;;;;;;4964830;28;20882;-90
2022/10/01 08:41:38;;;;;;;3.13;1.47;;;10.70;99.90;;;;;;4965040;28;20460;-90
2022/10/01 08:44:20;;;;;;;2.37;2.17;;;10.70;99.90;;;;;;4967016;28;20472;-89
2022/10/01 08:46:50;;;;;;;1.80;1.40;;;10.70;99.90;;;;;;4965405;28;21015;-87
2022/10/01 08:49:26;;;;;;;1.80;1.70;;;10.70;99.90;;;;;;4965304;28;21115;-90
2022/10/01 08:52:22;;;;;;;1.40;1.40;;;10.80;99.90;;;;;;4964254;28;20450;-88
2022/10/01 08:55:54;;;;;;;1.30;1.30;;;10.80;99.90;;;;;;4959568;28;20889;-88
2022/10/01 08:58:39;;;;;;;2.23;1.70;;;10.80;99.90;;;;;;4964480;28;20449;-89
2022/10/01 09:01:05;;;;;;;1.80;1.70;;;10.80;99.90;;;;;;4961827;28;20460;-86
2022/10/01 09:03:31;;;;;;;1.60;1.50;;;10.80;99.90;;;;;;4969499;28;21324;-87
2022/10/01 09:06:28;;;;;;;1.63;1.53;;;10.80;99.90;;;;;;4961803;28;21377;-90
2022/10/01 09:09:35;;;;;;;2.03;1.60;;;10.80;99.90;;;;;;4965480;28;20488;-87
2022/10/01 09:12:19;;;;;;;2.33;1.73;;;10.80;99.90;;;;;;4966562;28;20436;-90
2022/10/01 09:15:23;;;;;;;2.07;1.97;;;10.80;99.90;;;;;;4967642;28;20455;-85
2022/10/01 09:18:17;;;;;;;2.30;1.60;;;10.90;99.90;;;;;;4936740;28;20448;-89
2022/10/01 09:20:51;;;;;;;21.33;18.07;;;10.90;99.90;;;;;;4980545;28;20456;-86
2022/10/01 09:23:30;;;;;;;4.73;3.37;;;11.00;99.90;;;;;;4967185;28;20519;-87
2022/10/01 09:25:58;;;;;;;1.97;1.77;;;11.10;99.90;;;;;;4979553;28;20461;-90
2022/10/01 09:28:53;;;;;;;1.80;1.70;;;11.20;99.90;;;;;;4973536;28;20433;-87
2022/10/01 09:31:39;;;;;;;1.10;1.10;;;11.20;99.90;;;;;;4965980;28;20452;-86
2022/10/01 09:34:13;;;;;;;2.33;2.13;;;11.20;99.90;;;;;;4970473;28;20448;-85
2022/10/01 09:37:37;;;;;;;1.80;1.70;;;11.20;99.90;;;;;;4965391;28;20441;-85
2022/10/01 09:40:20;;;;;;;4.97;1.60;;;11.30;99.90;;;;;;4906643;29;20451;-85
2022/10/01 09:42:46;;;;;;;1.60;1.50;;;11.30;99.90;;;;;;4986524;28;20449;-85
2022/10/01 09:45:17;;;;;;;2.17;2.00;;;11.40;99.90;;;;;;4965323;28;21278;-85
2022/10/01 09:47:47;;;;;;;3.33;1.80;;;11.40;99.90;;;;;;4968476;28;20445;-86
2022/10/01 09:50:17;;;;;;;2.20;2.00;;;11.40;99.90;;;;;;4972254;28;20444;-85
2022/10/01 09:52:47;;;;;;;1.90;1.80;;;11.50;99.90;;;;;;4969894;28;20473;-87
2022/10/01 09:55:48;;;;;;;2.10;2.00;;;11.60;99.90;;;;;;4968178;28;20437;-86
2022/10/01 09:58:21;;;;;;;2.67;2.47;;;11.50;99.90;;;;;;4972806;28;20445;-86
2022/10/01 10:00:50;;;;;;;2.50;2.30;;;11.40;99.90;;;;;;4974251;28;20437;-85
2022/10/01 10:03:30;;;;;;;1.77;1.67;;;11.50;99.90;;;;;;4973278;28;20464;-85
2022/10/01 10:06:00;;;;;;;1.80;1.70;;;11.60;99.90;;;;;;4974651;28;20456;-84
2022/10/01 10:08:32;;;;;;;2.47;2.27;;;11.60;99.90;;;;;;4984680;28;20445;-86
2022/10/01 10:11:08;;;;;;;2.43;2.20;;;11.70;99.90;;;;;;4969076;28;20438;-86
2022/10/01 10:13:51;;;;;;;1.70;1.60;;;11.60;99.90;;;;;;4985780;28;20452;-87
2022/10/01 10:16:24;;;;;;;1.87;1.77;;;11.60;99.90;;;;;;4963569;28;21085;-85
2022/10/01 10:18:51;;;;;;;1.97;1.77;;;11.60;99.90;;;;;;4982255;28;20446;-86
2022/10/01 10:21:24;;;;;;;1.83;1.73;;;11.60;99.90;;;;;;4967016;28;20441;-87
2022/10/01 10:23:53;;;;;;;1.60;1.50;;;11.60;99.90;;;;;;4982823;28;20477;-86
2022/10/01 10:26:28;;;;;;;1.67;1.57;;;11.50;99.90;;;;;;4958579;28;20541;-85
2022/10/01 10:28:55;;;;;;;2.00;1.60;;;11.50;99.90;;;;;;4964833;28;20990;-86
2022/10/01 10:31:32;;;;;;;1.63;1.53;;;11.50;99.90;;;;;;4962287;28;20481;-86
2022/10/01 10:34:12;;;;;;;1.93;1.83;;;11.50;99.90;;;;;;4961833;28;20539;-85
2022/10/01 10:36:41;;;;;;;1.80;1.70;;;11.50;99.90;;;;;;4961237;28;20476;-87
2022/10/01 10:39:23;;;;;;;1.60;1.50;;;11.50;99.90;;;;;;4963502;28;20799;-86
2022/10/01 10:42:02;;;;;;;2.17;2.00;;;11.50;99.90;;;;;;4959136;28;21672;-86
2022/10/01 10:44:35;;;;;;;2.00;1.90;;;11.40;99.90;;;;;;4962588;28;20487;-87
2022/10/01 10:47:04;;;;;;;1.70;1.60;;;11.30;99.90;;;;;;4976145;28;20456;-86
2022/10/01 10:49:32;;;;;;;1.20;1.20;;;11.20;99.90;;;;;;4947424;28;20460;-85
2022/10/01 10:52:00;;;;;;;1.70;1.60;;;11.20;99.90;;;;;;4963565;28;20444;-86
2022/10/01 10:54:44;;;;;;;1.97;1.70;;;11.20;99.90;;;;;;4959552;28;20460;-87
2022/10/01 10:57:32;;;;;;;1.90;1.80;;;11.20;99.90;;;;;;4940669;28;20477;-87
2022/10/01 11:00:31;;;;;;;1.53;1.43;;;11.20;99.90;;;;;;4960974;28;20476;-87
2022/10/01 11:03:06;;;;;;;1.63;1.53;;;11.20;99.90;;;;;;4980259;28;20556;-86
2022/10/01 11:05:40;;;;;;;1.50;1.40;;;11.30;99.90;;;;;;4946963;28;20522;-85
2022/10/01 11:08:17;;;;;;;1.80;1.20;;;11.50;99.90;;;;;;4962957;28;20447;-87
2022/10/01 11:10:53;;;;;;;3.47;3.17;;;11.50;99.90;;;;;;4975175;28;20958;-86
2022/10/01 11:14:55;;;;;;;1.47;1.37;;;11.60;99.90;;;;;;4954512;28;20550;-85
2022/10/01 11:17:49;;;;;;;3.00;2.63;;;11.60;99.90;;;;;;4888437;29;20459;-85
2022/10/01 11:20:59;;;;;;;6.03;2.97;;;11.60;99.90;;;;;;4888275;29;20447;-84
2022/10/01 11:24:16;;;;;;;1.63;1.50;;;11.60;99.90;;;;;;4903821;29;20506;-86
2022/10/01 11:27:23;;;;;;;1.57;1.23;;;11.90;99.90;;;;;;4904283;29;20999;-86
2022/10/01 11:29:48;;;;;;;1.50;1.43;;;11.80;99.90;;;;;;4893525;29;20451;-86
2022/10/01 11:33:09;;;;;;;1.33;1.33;;;11.80;99.90;;;;;;4890745;29;20505;-86
2022/10/01 11:35:59;;;;;;;1.93;1.70;;;11.70;99.90;;;;;;4888874;29;21142;-84
2022/10/01 11:38:57;;;;;;;1.00;1.00;;;11.70;99.90;;;;;;4961211;28;20532;-85
2022/10/01 11:41:50;;;;;;;1.07;1.07;;;11.60;99.90;;;;;;4960532;28;21123;-86
2022/10/01 11:45:00;;;;;;;1.40;1.30;;;11.60;99.90;;;;;;4961791;28;20511;-86
2022/10/01 11:47:36;;;;;;;1.00;1.00;;;11.60;99.90;;;;;;4957989;28;20490;-85
2022/10/01 11:50:13;;;;;;;1.50;1.40;;;11.60;99.90;;;;;;4961538;28;20441;-85
2022/10/01 11:53:10;;;;;;;1.10;1.10;;;11.50;99.90;;;;;;4967546;28;20472;-86
2022/10/01 11:59:02;;;;;;;1.83;1.60;;;11.60;99.90;;;;;;4957137;28;20795;-87
2022/10/01 12:01:33;;;;;;;1.00;1.00;;;11.70;99.90;;;;;;4958149;28;20545;-85
2022/10/01 12:04:31;;;;;;;1.40;1.23;;;11.70;99.90;;;;;;4970739;28;20651;-86
2022/10/01 12:07:04;;;;;;;1.60;1.17;;;11.70;99.90;;;;;;4960755;28;20660;-85
2022/10/01 12:10:16;;;;;;;1.33;1.23;;;11.90;99.90;;;;;;4975852;28;20449;-85
2022/10/01 12:12:53;;;;;;;3.73;1.60;;;12.00;99.90;;;;;;4960869;28;20444;-85
2022/10/01 12:15:32;;;;;;;2.00;1.80;;;12.10;99.90;;;;;;4961479;28;20493;-85
2022/10/01 12:18:12;;;;;;;1.33;1.20;;;12.20;99.90;;;;;;4963676;28;20492;-87
2022/10/01 12:20:54;;;;;;;1.90;1.77;;;12.30;99.90;;;;;;4952742;28;20457;-86
2022/10/01 12:23:27;;;;;;;3.07;1.57;;;12.40;99.90;;;;;;4955986;28;20468;-86
2022/10/01 12:26:07;;;;;;;1.63;1.37;;;12.40;99.90;;;;;;4956912;28;20491;-87
2022/10/01 12:28:56;;;;;;;1.90;1.77;;;12.40;99.90;;;;;;4963473;28;20433;-87
2022/10/01 12:31:35;;;;;;;1.77;1.63;;;12.50;99.90;;;;;;4967831;28;20455;-85
2022/10/01 12:34:21;;;;;;;1.70;1.60;;;12.60;99.90;;;;;;4979402;28;20472;-85
2022/10/01 12:37:06;;;;;;;1.70;1.60;;;12.60;99.90;;;;;;4970611;28;20447;-87
2022/10/01 12:40:01;;;;;;;1.27;1.17;;;12.70;99.90;;;;;;4973992;28;20514;-87
2022/10/01 12:42:55;;;;;;;2.10;1.90;;;12.70;99.90;;;;;;4965656;28;20779;-86
2022/10/01 12:45:34;;;;;;;1.93;1.80;;;12.90;99.90;;;;;;4969091;28;21006;-86
2022/10/01 12:48:15;;;;;;;1.47;1.37;;;13.00;99.90;;;;;;4976759;28;20859;-86
2022/10/01 12:50:55;;;;;;;2.43;1.40;;;13.00;99.90;;;;;;4989013;28;20550;-87
2022/10/01 12:53:39;;;;;;;1.67;1.30;;;13.00;99.90;;;;;;4977475;28;20494;-86
2022/10/01 12:56:37;;;;;;;2.67;2.47;;;13.10;99.90;;;;;;4973135;28;20455;-85
2022/10/01 12:59:40;;;;;;;1.63;1.20;;;13.40;99.90;;;;;;4978035;28;20531;-86
2022/10/01 13:02:06;;;;;;;1.40;1.30;;;13.40;99.90;;;;;;4989771;28;20447;-86
2022/10/01 13:04:39;;;;;;;1.03;1.03;;;13.70;99.90;;;;;;4976942;28;20469;-88
2022/10/01 13:07:29;;;;;;;1.57;1.43;;;13.70;99.90;;;;;;4981503;28;21146;-85
2022/10/01 13:10:13;;;;;;;0.93;0.93;;;14.00;99.90;;;;;;4970438;28;20448;-86
2022/10/01 13:12:38;;;;;;;1.07;0.93;;;14.30;99.90;;;;;;4974170;28;21325;-86
2022/10/01 13:15:10;;;;;;;1.50;1.40;;;14.50;99.90;;;;;;4970966;28;20437;-86
2022/10/01 13:17:48;;;;;;;0.90;0.90;;;14.60;99.90;;;;;;4974196;28;20186;-85
2022/10/01 13:20:43;;;;;;;1.10;1.00;;;14.80;99.90;;;;;;4971925;28;20543;-87
2022/10/01 13:23:22;;;;;;;1.50;1.27;;;14.80;99.90;;;;;;4962007;28;20448;-86
2022/10/01 13:26:00;;;;;;;1.03;1.03;;;14.80;99.90;;;;;;4966212;28;20460;-86
2022/10/01 13:28:45;;;;;;;1.33;1.00;;;14.70;99.90;;;;;;4972781;28;20511;-85
2022/10/01 13:31:18;;;;;;;1.40;0.87;;;14.50;99.90;;;;;;4971198;28;20502;-86
2022/10/01 13:33:54;;;;;;;1.10;1.00;;;14.50;99.90;;;;;;4977566;28;20745;-86
2022/10/01 13:36:32;;;;;;;1.13;1.03;;;14.70;99.90;;;;;;4967021;28;20655;-86
2022/10/01 13:38:58;;;;;;;1.10;1.10;;;14.70;99.90;;;;;;4965717;28;20587;-87
2022/10/01 13:41:30;;;;;;;1.43;1.20;;;14.80;99.90;;;;;;4961572;28;20457;-86